Schneifelwetter: Wetterstation Hallschlag, 537 m . NN
Wetterdaten: Samstag, 07.03.2009
Datum Zeit Temp. A. Temp. 2 Feuchte A. Luftdruck Regen Wind Richtung Richtung Sonnenschein Helligkeit T Regen Taupunkt Windchill
07.03.2009 00:10 -0,4 C -0,4 C 91 % 1005 hPa 0,0 l/m 23,9 km/h (4 Bft) W45 270 0 min 0 lux 0,00 min -1,7 C -11,8 C
07.03.2009 00:25 -0,6 C -0,7 C 91 % 1005 hPa 0,0 l/m 24,0 km/h (4 Bft) W45 275 0 min 0 lux 0,00 min -1,9 C -12,1 C
07.03.2009 00:40 -0,7 C -0,9 C 92 % 1005 hPa 0,0 l/m 30,0 km/h (5 Bft) W45 280 0 min 0 lux 0,00 min -1,8 C -14,4 C
07.03.2009 00:55 -0,8 C -1,0 C 93 % 1005 hPa 0,0 l/m 21,1 km/h (4 Bft) W45 275 0 min 0 lux 0,00 min -1,8 C -11,2 C
07.03.2009 01:10 -0,8 C -1,1 C 93 % 1006 hPa 0,0 l/m 23,6 km/h (4 Bft) W-NW45 285 0 min 0 lux 0,00 min -1,8 C -12,3 C
07.03.2009 01:25 -0,8 C -1,2 C 93 % 1006 hPa 0,0 l/m 27,8 km/h (4 Bft) W45 280 0 min 0 lux 0,00 min -1,8 C -13,8 C
07.03.2009 01:40 -0,9 C -1,3 C 93 % 1006 hPa 0,0 l/m 23,6 km/h (4 Bft) W45 270 0 min 0 lux 0,00 min -1,9 C -12,4 C
07.03.2009 01:55 -1,0 C -1,4 C 93 % 1006 hPa 0,0 l/m 19,3 km/h (3 Bft) W45 265 0 min 0 lux 0,00 min -2,0 C -10,6 C
07.03.2009 02:10 -1,3 C -1,8 C 93 % 1006 hPa 0,0 l/m 21,4 km/h (4 Bft) W45 270 0 min 0 lux 0,00 min -2,3 C -12,0 C
07.03.2009 02:25 -1,4 C -1,9 C 93 % 1006 hPa 0,0 l/m 19,0 km/h (3 Bft) W22.5 275 0 min 0 lux 0,00 min -2,4 C -10,9 C
07.03.2009 02:40 -1,5 C -2,1 C 93 % 1006 hPa 0,0 l/m 21,8 km/h (4 Bft) W22.5 275 0 min 0 lux 0,00 min -2,5 C -12,4 C
07.03.2009 02:55 -1,6 C -2,4 C 93 % 1006 hPa 0,0 l/m 17,5 km/h (3 Bft) W22.5 260 0 min 0 lux 0,00 min -2,6 C -10,4 C
07.03.2009 03:10 -1,8 C -2,6 C 94 % 1006 hPa 0,0 l/m 13,9 km/h (3 Bft) W22.5 260 0 min 0 lux 0,00 min -2,6 C -8,4 C
07.03.2009 03:25 -1,9 C -2,8 C 94 % 1006 hPa 0,0 l/m 18,5 km/h (3 Bft) W22.5 260 0 min 0 lux 0,00 min -2,7 C -11,3 C
07.03.2009 03:40 -2,1 C -2,9 C 94 % 1006 hPa 0,0 l/m 16,2 km/h (3 Bft) W22.5 260 0 min 0 lux 0,00 min -2,9 C -10,3 C
07.03.2009 03:55 -2,2 C -3,0 C 95 % 1006 hPa 0,0 l/m 15,3 km/h (3 Bft) W22.5 260 0 min 0 lux 0,00 min -2,9 C -9,8 C
07.03.2009 04:10 -2,2 C -2,9 C 96 % 1006 hPa 0,0 l/m 17,0 km/h (3 Bft) W22.5 260 0 min 0 lux 0,00 min -2,7 C -10,9 C
07.03.2009 04:25 -2,4 C -3,1 C 95 % 1006 hPa 0,0 l/m 17,4 km/h (3 Bft) W-SW22.5 255 0 min 0 lux 0,00 min -3,1 C -11,3 C
07.03.2009 04:40 -2,6 C -3,3 C 95 % 1007 hPa 0,0 l/m 13,8 km/h (3 Bft) W22.5 265 0 min 0 lux 0,00 min -3,3 C -9,3 C
07.03.2009 04:55 -2,8 C -3,6 C 95 % 1007 hPa 0,0 l/m 8,8 km/h (2 Bft) W-SW22.5 255 0 min 0 lux 0,00 min -3,5 C -5,4 C
07.03.2009 05:10 -3,1 C -3,9 C 95 % 1007 hPa 0,0 l/m 10,1 km/h (2 Bft) W-SW 255 0 min 0 lux 0,00 min -3,8 C -7,0 C
07.03.2009 05:25 -3,1 C -3,7 C 96 % 1007 hPa 0,0 l/m 14,0 km/h (3 Bft) W-SW 255 0 min 0 lux 0,00 min -3,6 C -10,1 C
07.03.2009 05:40 -2,9 C -3,7 C 97 % 1007 hPa 0,0 l/m 14,9 km/h (3 Bft) W22.5 260 0 min 0 lux 0,00 min -3,3 C -10,4 C
07.03.2009 06:00 -2,7 C -3,3 C 97 % 1007 hPa 0,0 l/m 12,4 km/h (3 Bft) W-SW45 245 0 min 0 lux 0,00 min -3,1 C -8,4 C
07.03.2009 06:15 -2,2 C -2,7 C 98 % 1008 hPa 0,0 l/m 22,0 km/h (4 Bft) W45 265 0 min 0 lux 0,00 min -2,5 C -13,4 C
07.03.2009 06:30 -1,9 C -2,5 C 98 % 1008 hPa 0,0 l/m 18,3 km/h (3 Bft) W22.5 265 0 min 0 lux 0,00 min -2,2 C -11,2 C
07.03.2009 06:45 -1,9 C -2,4 C 98 % 1008 hPa 0,0 l/m 14,5 km/h (3 Bft) W-SW 255 0 min 0 lux 0,00 min -2,2 C -9,0 C
07.03.2009 07:00 -1,9 C -2,5 C 98 % 1008 hPa 0,0 l/m 12,9 km/h (3 Bft) W 265 0 min 281 lux 0,00 min -2,2 C -7,9 C
07.03.2009 07:15 -2,1 C -2,7 C 98 % 1008 hPa 0,0 l/m 8,1 km/h (2 Bft) W-SW 250 0 min 912 lux 0,00 min -2,4 C -4,0 C
07.03.2009 07:30 -2,1 C -2,7 C 98 % 1008 hPa 0,0 l/m 8,3 km/h (2 Bft) W-SW 250 0 min 2,92 klux 0,00 min -2,4 C -4,2 C
07.03.2009 07:45 -1,9 C -2,6 C 98 % 1009 hPa 0,0 l/m 9,6 km/h (2 Bft) W-SW 250 0 min 5,10 klux 0,00 min -2,2 C -5,2 C
07.03.2009 08:00 -1,5 C -2,2 C 98 % 1009 hPa 0,0 l/m 7,8 km/h (2 Bft) W-SW 250 0 min 8,02 klux 0,00 min -1,8 C -3,0 C
07.03.2009 08:15 -1,1 C -1,5 C 98 % 1009 hPa 0,0 l/m 11,3 km/h (2 Bft) W 260 0 min 10,5 klux 0,00 min -1,4 C -5,7 C
07.03.2009 08:30 -0,9 C -1,1 C 98 % 1009 hPa 0,0 l/m 9,9 km/h (2 Bft) W-SW22.5 240 0 min 11,9 klux 0,00 min -1,2 C -4,4 C
07.03.2009 08:45 -0,7 C -0,9 C 98 % 1009 hPa 0,0 l/m 15,8 km/h (3 Bft) W-SW 245 0 min 19,2 klux 0,00 min -1,0 C -8,3 C
07.03.2009 09:00 -0,3 C -0,5 C 98 % 1009 hPa 0,0 l/m 17,6 km/h (3 Bft) W-SW22.5 245 15 min 31,4 klux 0,00 min -0,6 C -8,8 C
07.03.2009 09:16 0,1 C 0,0 C 98 % 1010 hPa 0,0 l/m 16,5 km/h (3 Bft) W-SW 250 16 min 29,1 klux 0,00 min -0,2 C -7,7 C
07.03.2009 09:31 0,5 C 0,8 C 98 % 1010 hPa 0,0 l/m 15,1 km/h (3 Bft) W-SW 245 15 min 34,3 klux 0,00 min 0,2 C -6,4 C
07.03.2009 09:46 0,9 C 1,2 C 98 % 1010 hPa 0,0 l/m 21,2 km/h (4 Bft) W-SW22.5 245 15 min 31,7 klux 0,00 min 0,6 C -9,0 C
07.03.2009 10:01 1,2 C 1,7 C 97 % 1010 hPa 0,0 l/m 21,5 km/h (4 Bft) SW22.5 235 0 min 27,5 klux 0,00 min 0,8 C -8,7 C
07.03.2009 10:16 1,6 C 2,1 C 97 % 1010 hPa 0,0 l/m 20,4 km/h (4 Bft) W-SW22.5 250 15 min 50,1 klux 0,00 min 1,2 C -7,7 C
07.03.2009 10:31 2,7 C 4,0 C 97 % 1010 hPa 0,0 l/m 17,3 km/h (3 Bft) W-SW22.5 245 15 min 67,7 klux 0,00 min 2,3 C -4,9 C
07.03.2009 10:46 3,3 C 5,6 C 95 % 1010 hPa 0,0 l/m 21,2 km/h (4 Bft) W-SW22.5 245 15 min 58,4 klux 0,00 min 2,6 C -5,9 C
07.03.2009 11:01 3,5 C 6,7 C 94 % 1010 hPa 0,0 l/m 19,5 km/h (3 Bft) W-SW22.5 255 15 min 60,8 klux 0,00 min 2,6 C -4,9 C
07.03.2009 11:15 3,8 C 7,3 C 93 % 1010 hPa 0,0 l/m 19,9 km/h (4 Bft) W-SW22.5 255 14 min 60,5 klux 0,00 min 2,8 C -4,7 C
07.03.2009 11:31 4,1 C 7,7 C 92 % 1010 hPa 0,0 l/m 24,1 km/h (4 Bft) W-SW45 250 16 min 62,5 klux 0,00 min 2,9 C -5,9 C
07.03.2009 11:46 4,3 C 8,3 C 90 % 1010 hPa 0,0 l/m 21,6 km/h (4 Bft) W-SW22.5 250 15 min 63,5 klux 0,00 min 2,8 C -4,7 C
07.03.2009 12:01 4,4 C 9,1 C 89 % 1010 hPa 0,0 l/m 26,3 km/h (4 Bft) W-SW22.5 255 15 min 64,8 klux 0,00 min 2,7 C -6,2 C
07.03.2009 12:16 4,9 C 9,2 C 87 % 1010 hPa 0,0 l/m 29,0 km/h (5 Bft) W-SW22.5 250 15 min 67,3 klux 0,00 min 2,9 C -6,3 C
07.03.2009 12:31 5,2 C 10,1 C 86 % 1011 hPa 0,0 l/m 27,3 km/h (4 Bft) W-SW22.5 250 15 min 70,3 klux 0,00 min 3,1 C -5,4 C
07.03.2009 12:45 5,7 C 10,2 C 83 % 1011 hPa 0,0 l/m 30,1 km/h (5 Bft) W-SW45 255 14 min 70,4 klux 0,00 min 3,0 C -5,4 C
07.03.2009 13:01 5,4 C 10,7 C 83 % 1011 hPa 0,0 l/m 20,9 km/h (4 Bft) W22.5 270 16 min 73,7 klux 0,00 min 2,7 C -3,0 C
07.03.2009 13:16 6,0 C 11,7 C 79 % 1010 hPa 0,0 l/m 30,7 km/h (5 Bft) W22.5 260 15 min 79,3 klux 0,00 min 2,6 C -5,1 C
07.03.2009 13:31 6,3 C 12,0 C 76 % 1010 hPa 0,0 l/m 27,1 km/h (4 Bft) W22.5 260 15 min 71,6 klux 0,00 min 2,4 C -3,8 C
07.03.2009 13:46 5,9 C 10,9 C 74 % 1010 hPa 0,0 l/m 26,3 km/h (4 Bft) W22.5 265 15 min 35,0 klux 0,00 min 1,6 C -4,1 C
07.03.2009 14:01 5,6 C 8,7 C 76 % 1010 hPa 0,0 l/m 25,6 km/h (4 Bft) W22.5 260 15 min 37,1 klux 0,00 min 1,7 C -4,3 C
07.03.2009 14:16 6,0 C 9,2 C 77 % 1011 hPa 0,0 l/m 23,6 km/h (4 Bft) W22.5 260 15 min 67,2 klux 0,00 min 2,3 C -3,1 C
07.03.2009 14:31 6,3 C 9,1 C 74 % 1010 hPa 0,0 l/m 27,5 km/h (4 Bft) W45 265 15 min 47,7 klux 0,00 min 2,0 C -3,9 C
07.03.2009 14:45 6,5 C 9,7 C 75 % 1010 hPa 0,0 l/m 19,8 km/h (3 Bft) W-SW22.5 255 14 min 56,5 klux 0,00 min 2,4 C -1,2 C
07.03.2009 15:01 6,6 C 8,5 C 73 % 1010 hPa 0,0 l/m 23,8 km/h (4 Bft) W-SW22.5 255 0 min 24,8 klux 0,00 min 2,1 C -2,4 C
07.03.2009 15:16 6,2 C 7,8 C 72 % 1010 hPa 0,0 l/m 16,2 km/h (3 Bft) W22.5 260 15 min 54,8 klux 0,00 min 1,5 C -0,0 C
07.03.2009 15:31 6,6 C 10,7 C 73 % 1011 hPa 0,0 l/m 21,7 km/h (4 Bft) W-SW22.5 255 15 min 59,5 klux 0,00 min 2,1 C -1,7 C
07.03.2009 15:46 7,1 C 11,3 C 69 % 1010 hPa 0,0 l/m 22,6 km/h (4 Bft) W45 265 15 min 49,4 klux 0,00 min 1,8 C -1,4 C
07.03.2009 16:01 6,8 C 9,3 C 70 % 1011 hPa 0,0 l/m 20,3 km/h (4 Bft) W22.5 270 15 min 41,9 klux 0,00 min 1,7 C -1,0 C
07.03.2009 16:16 6,2 C 8,4 C 72 % 1011 hPa 0,0 l/m 16,8 km/h (3 Bft) W22.5 260 15 min 30,2 klux 0,00 min 1,5 C -0,3 C
07.03.2009 16:30 6,0 C 9,4 C 73 % 1011 hPa 0,0 l/m 14,5 km/h (3 Bft) W22.5 265 14 min 40,0 klux 0,00 min 1,5 C 0,5 C
07.03.2009 16:46 6,0 C 8,4 C 73 % 1011 hPa 0,0 l/m 20,0 km/h (4 Bft) W-SW22.5 255 16 min 38,3 klux 0,00 min 1,5 C -1,9 C
07.03.2009 17:01 5,6 C 7,0 C 74 % 1011 hPa 0,0 l/m 22,6 km/h (4 Bft) W22.5 265 0 min 6,77 klux 0,00 min 1,3 C -3,3 C
07.03.2009 17:16 5,5 C 6,3 C 75 % 1011 hPa 0,0 l/m 17,1 km/h (3 Bft) W-SW22.5 250 0 min 5,34 klux 0,00 min 1,4 C -1,3 C
07.03.2009 17:31 5,1 C 5,7 C 76 % 1011 hPa 0,0 l/m 14,3 km/h (3 Bft) W22.5 260 0 min 4,01 klux 0,00 min 1,2 C -0,4 C
07.03.2009 17:46 4,8 C 5,3 C 77 % 1011 hPa 0,0 l/m 13,9 km/h (3 Bft) W-SW22.5 255 0 min 2,07 klux 0,00 min 1,1 C -0,6 C
07.03.2009 18:01 4,5 C 4,9 C 79 % 1011 hPa 0,0 l/m 10,6 km/h (2 Bft) W22.5 265 0 min 1,61 klux 0,00 min 1,2 C 1,1 C
07.03.2009 18:16 4,4 C 4,6 C 79 % 1011 hPa 0,0 l/m 7,7 km/h (2 Bft) W-SW22.5 250 0 min 1,01 klux 0,00 min 1,1 C 3,2 C
07.03.2009 18:30 4,1 C 4,3 C 81 % 1011 hPa 0,0 l/m 16,5 km/h (3 Bft) W-SW22.5 245 0 min 373 lux 0,00 min 1,1 C -2,8 C
07.03.2009 18:46 3,9 C 4,2 C 82 % 1011 hPa 0,0 l/m 15,8 km/h (3 Bft) W-SW 255 0 min 91 lux 0,00 min 1,1 C -2,7 C
07.03.2009 19:01 3,8 C 4,1 C 82 % 1011 hPa 0,0 l/m 19,6 km/h (3 Bft) W-SW22.5 250 0 min 22 lux 0,00 min 1,0 C -4,6 C
07.03.2009 19:16 3,7 C 3,9 C 83 % 1011 hPa 0,0 l/m 13,0 km/h (3 Bft) W-SW 245 0 min 6 lux 0,00 min 1,1 C -1,4 C
07.03.2009 19:31 3,6 C 3,8 C 84 % 1011 hPa 0,0 l/m 12,5 km/h (3 Bft) W-SW22.5 240 0 min 3 lux 0,00 min 1,2 C -1,2 C
07.03.2009 19:46 3,5 C 3,8 C 85 % 1011 hPa 0,0 l/m 16,8 km/h (3 Bft) W-SW22.5 245 0 min 3 lux 0,00 min 1,2 C -3,7 C
07.03.2009 20:01 3,5 C 3,8 C 86 % 1011 hPa 0,0 l/m 21,6 km/h (4 Bft) SW45 230 0 min 0 lux 0,00 min 1,4 C -5,8 C
07.03.2009 20:15 3,5 C 3,7 C 87 % 1011 hPa 0,0 l/m 23,1 km/h (4 Bft) W-SW22.5 250 0 min 0 lux 0,00 min 1,5 C -6,3 C
07.03.2009 20:31 3,5 C 3,7 C 87 % 1011 hPa 0,0 l/m 23,2 km/h (4 Bft) SW45 235 0 min 0 lux 0,00 min 1,5 C -6,4 C
07.03.2009 20:46 3,4 C 3,6 C 88 % 1011 hPa 0,0 l/m 22,1 km/h (4 Bft) W-SW45 240 0 min 0 lux 0,00 min 1,6 C -6,1 C
07.03.2009 21:01 3,4 C 3,6 C 88 % 1011 hPa 0,0 l/m 22,4 km/h (4 Bft) SW45 230 0 min 0 lux 0,00 min 1,6 C -6,2 C
07.03.2009 21:16 3,3 C 3,5 C 89 % 1011 hPa 0,0 l/m 21,3 km/h (4 Bft) SW45 230 0 min 0 lux 0,00 min 1,7 C -5,9 C
07.03.2009 21:31 3,3 C 3,4 C 89 % 1011 hPa 0,0 l/m 20,6 km/h (4 Bft) W-SW22.5 250 0 min 0 lux 0,00 min 1,7 C -5,6 C
07.03.2009 21:46 3,2 C 3,3 C 90 % 1011 hPa 0,0 l/m 20,1 km/h (4 Bft) SW22.5 230 0 min 0 lux 0,00 min 1,7 C -5,5 C
07.03.2009 22:01 3,2 C 3,3 C 90 % 1011 hPa 0,0 l/m 21,2 km/h (4 Bft) SW67.5 225 0 min 0 lux 0,00 min 1,7 C -6,0 C
07.03.2009 22:15 3,1 C 3,2 C 91 % 1011 hPa 0,0 l/m 20,4 km/h (4 Bft) SW45 215 0 min 0 lux 0,00 min 1,8 C -5,8 C
07.03.2009 22:31 3,1 C 3,1 C 91 % 1011 hPa 0,0 l/m 20,4 km/h (4 Bft) SW45 215 0 min 0 lux 0,00 min 1,8 C -5,8 C
07.03.2009 22:46 3,1 C 3,0 C 91 % 1011 hPa 0,0 l/m 23,1 km/h (4 Bft) S-SW22.5 205 0 min 0 lux 0,00 min 1,8 C -6,8 C
07.03.2009 23:01 2,9 C 2,8 C 91 % 1010 hPa 0,0 l/m 18,1 km/h (3 Bft) SW45 215 0 min 0 lux 0,00 min 1,6 C -5,0 C
07.03.2009 23:16 2,9 C 3,0 C 92 % 1011 hPa 0,0 l/m 23,0 km/h (4 Bft) W-SW22.5 240 0 min 0 lux 0,00 min 1,7 C -7,1 C
07.03.2009 23:31 3,1 C 3,2 C 92 % 1010 hPa 0,0 l/m 25,2 km/h (4 Bft) S-SW22.5 210 0 min 0 lux 0,00 min 1,9 C -7,6 C
07.03.2009 23:46 3,1 C 3,3 C 92 % 1010 hPa 0,0 l/m 30,1 km/h (5 Bft) SW45 225 0 min 0 lux 0,00 min 1,9 C -9,1 C
_ Min-Zeit 05:10 05:10 15:46 00:10 - 18:16 - - - - - 05:10 00:40
Minimum _ -3,1 C -3,9 C 69 % 1005 hPa - 7,7 km/h (2 Bft) - - - - - -3,8 C -14,4 C
_ Max-Zeit 15:46 13:31 06:15 12:31 00:10 13:16 - - 09:16 13:16 00:10 12:31 18:16
Maximum _ 7,1 C 12,0 C 98 % 1011 hPa 0,0 l/m 30,7 km/h
W (5 Bft)
- - 16 min 79,3 klux 0,00 min 3,1 C 3,2 C
Durchschnitt _ 2,0 C 2,9 C 88 % 1009 hPa #0,0 l/m 19,2 km/h (3 Bft) W-SW - #7:30 h 18,3 klux #0 min. 0,2 C -6,2 C